sensor_id;sensor_type;location;lat;lon;timestamp;P1;durP1;ratioP1;P2;durP2;ratioP2
72761;SDS011;60886;55.034;73.150;2023-04-24T00:00:10;14.82;;;6.35;;
72761;SDS011;60886;55.034;73.150;2023-04-24T00:03:18;14.60;;;5.50;;
72761;SDS011;60886;55.034;73.150;2023-04-24T00:06:27;13.20;;;6.10;;
72761;SDS011;60886;55.034;73.150;2023-04-24T00:09:34;14.77;;;5.40;;
72761;SDS011;60886;55.034;73.150;2023-04-24T00:12:36;12.25;;;4.63;;
72761;SDS011;60886;55.034;73.150;2023-04-24T00:15:37;12.95;;;5.22;;
72761;SDS011;60886;55.034;73.150;2023-04-24T00:18:39;11.20;;;4.70;;
72761;SDS011;60886;55.034;73.150;2023-04-24T00:21:47;22.13;;;10.58;;
72761;SDS011;60886;55.034;73.150;2023-04-24T00:24:50;16.27;;;5.80;;
72761;SDS011;60886;55.034;73.150;2023-04-24T00:27:52;11.57;;;5.03;;
72761;SDS011;60886;55.034;73.150;2023-04-24T00:30:55;10.55;;;4.82;;
72761;SDS011;60886;55.034;73.150;2023-04-24T00:33:58;12.57;;;5.10;;
72761;SDS011;60886;55.034;73.150;2023-04-24T00:37:13;12.03;;;5.10;;
72761;SDS011;60886;55.034;73.150;2023-04-24T00:40:27;12.98;;;5.82;;
72761;SDS011;60886;55.034;73.150;2023-04-24T00:43:30;33.70;;;16.53;;
72761;SDS011;60886;55.034;73.150;2023-04-24T00:46:33;14.68;;;6.28;;
72761;SDS011;60886;55.034;73.150;2023-04-24T00:49:36;10.60;;;5.07;;
72761;SDS011;60886;55.034;73.150;2023-04-24T00:52:40;12.30;;;5.37;;
72761;SDS011;60886;55.034;73.150;2023-04-24T00:55:47;11.93;;;4.70;;
72761;SDS011;60886;55.034;73.150;2023-04-24T00:58:57;10.95;;;4.35;;
72761;SDS011;60886;55.034;73.150;2023-04-24T01:01:59;13.00;;;4.40;;
72761;SDS011;60886;55.034;73.150;2023-04-24T01:05:13;10.65;;;3.90;;
72761;SDS011;60886;55.034;73.150;2023-04-24T01:08:16;11.13;;;4.27;;
72761;SDS011;60886;55.034;73.150;2023-04-24T01:11:20;9.40;;;4.07;;
72761;SDS011;60886;55.034;73.150;2023-04-24T01:14:32;10.30;;;4.23;;
72761;SDS011;60886;55.034;73.150;2023-04-24T01:17:34;10.32;;;4.57;;
72761;SDS011;60886;55.034;73.150;2023-04-24T01:20:36;11.23;;;4.50;;
72761;SDS011;60886;55.034;73.150;2023-04-24T01:23:46;9.10;;;4.18;;
72761;SDS011;60886;55.034;73.150;2023-04-24T01:26:52;11.10;;;4.30;;
72761;SDS011;60886;55.034;73.150;2023-04-24T01:29:54;11.43;;;4.50;;
72761;SDS011;60886;55.034;73.150;2023-04-24T01:32:57;10.67;;;3.93;;
72761;SDS011;60886;55.034;73.150;2023-04-24T01:36:00;9.80;;;3.93;;
72761;SDS011;60886;55.034;73.150;2023-04-24T01:39:01;10.00;;;4.20;;
72761;SDS011;60886;55.034;73.150;2023-04-24T01:42:04;10.23;;;4.03;;
72761;SDS011;60886;55.034;73.150;2023-04-24T01:45:06;11.27;;;4.00;;
72761;SDS011;60886;55.034;73.150;2023-04-24T01:48:16;9.77;;;3.97;;
72761;SDS011;60886;55.034;73.150;2023-04-24T01:51:22;11.38;;;4.13;;
72761;SDS011;60886;55.034;73.150;2023-04-24T01:54:24;13.10;;;4.28;;
72761;SDS011;60886;55.034;73.150;2023-04-24T01:57:26;12.05;;;4.47;;
72761;SDS011;60886;55.034;73.150;2023-04-24T02:00:27;11.60;;;4.97;;
72761;SDS011;60886;55.034;73.150;2023-04-24T02:03:29;13.43;;;4.90;;
72761;SDS011;60886;55.034;73.150;2023-04-24T02:06:33;12.18;;;4.65;;
72761;SDS011;60886;55.034;73.150;2023-04-24T02:09:35;10.93;;;4.10;;
72761;SDS011;60886;55.034;73.150;2023-04-24T02:12:36;10.15;;;3.92;;
72761;SDS011;60886;55.034;73.150;2023-04-24T02:15:38;10.80;;;4.10;;
72761;SDS011;60886;55.034;73.150;2023-04-24T02:18:45;12.40;;;3.90;;
72761;SDS011;60886;55.034;73.150;2023-04-24T02:21:56;12.40;;;4.05;;
72761;SDS011;60886;55.034;73.150;2023-04-24T02:24:58;9.90;;;4.13;;
72761;SDS011;60886;55.034;73.150;2023-04-24T02:28:09;11.48;;;4.60;;
72761;SDS011;60886;55.034;73.150;2023-04-24T02:31:11;11.73;;;4.13;;
72761;SDS011;60886;55.034;73.150;2023-04-24T02:34:12;11.13;;;3.90;;
72761;SDS011;60886;55.034;73.150;2023-04-24T02:37:14;11.07;;;4.07;;
72761;SDS011;60886;55.034;73.150;2023-04-24T02:40:18;10.70;;;3.78;;
72761;SDS011;60886;55.034;73.150;2023-04-24T02:43:25;12.57;;;4.20;;
72761;SDS011;60886;55.034;73.150;2023-04-24T02:46:33;10.60;;;3.88;;
72761;SDS011;60886;55.034;73.150;2023-04-24T02:49:34;11.07;;;4.50;;
72761;SDS011;60886;55.034;73.150;2023-04-24T02:52:36;12.00;;;4.10;;
72761;SDS011;60886;55.034;73.150;2023-04-24T02:55:37;13.20;;;4.50;;
72761;SDS011;60886;55.034;73.150;2023-04-24T02:58:39;15.17;;;4.63;;
72761;SDS011;60886;55.034;73.150;2023-04-24T03:01:50;9.04;;;4.14;;
72761;SDS011;60886;55.034;73.150;2023-04-24T03:04:52;12.90;;;4.43;;
72761;SDS011;60886;55.034;73.150;2023-04-24T03:07:55;10.10;;;4.60;;
72761;SDS011;60886;55.034;73.150;2023-04-24T03:10:56;13.13;;;4.80;;
72761;SDS011;60886;55.034;73.150;2023-04-24T03:13:58;10.35;;;4.47;;
72761;SDS011;60886;55.034;73.150;2023-04-24T03:17:04;12.90;;;4.77;;
72761;SDS011;60886;55.034;73.150;2023-04-24T03:20:06;12.07;;;4.53;;
72761;SDS011;60886;55.034;73.150;2023-04-24T03:23:20;12.07;;;4.50;;
72761;SDS011;60886;55.034;73.150;2023-04-24T03:26:21;13.88;;;4.90;;
72761;SDS011;60886;55.034;73.150;2023-04-24T03:29:38;14.83;;;4.40;;
72761;SDS011;60886;55.034;73.150;2023-04-24T03:32:39;14.27;;;4.78;;
72761;SDS011;60886;55.034;73.150;2023-04-24T03:35:42;12.70;;;4.60;;
72761;SDS011;60886;55.034;73.150;2023-04-24T03:38:46;14.25;;;4.78;;
72761;SDS011;60886;55.034;73.150;2023-04-24T03:42:03;13.73;;;4.90;;
72761;SDS011;60886;55.034;73.150;2023-04-24T03:45:16;15.88;;;5.05;;
72761;SDS011;60886;55.034;73.150;2023-04-24T03:48:22;14.37;;;5.33;;
72761;SDS011;60886;55.034;73.150;2023-04-24T03:51:24;13.50;;;4.90;;
72761;SDS011;60886;55.034;73.150;2023-04-24T03:54:29;13.55;;;4.75;;
72761;SDS011;60886;55.034;73.150;2023-04-24T03:57:31;14.80;;;5.40;;
72761;SDS011;60886;55.034;73.150;2023-04-24T04:00:51;14.38;;;5.18;;
72761;SDS011;60886;55.034;73.150;2023-04-24T04:04:19;13.32;;;4.85;;
72761;SDS011;60886;55.034;73.150;2023-04-24T04:07:21;18.15;;;5.05;;
72761;SDS011;60886;55.034;73.150;2023-04-24T04:10:23;12.53;;;4.67;;
72761;SDS011;60886;55.034;73.150;2023-04-24T04:13:24;11.90;;;4.88;;
72761;SDS011;60886;55.034;73.150;2023-04-24T04:16:26;11.85;;;4.68;;
72761;SDS011;60886;55.034;73.150;2023-04-24T04:19:39;11.35;;;4.70;;
72761;SDS011;60886;55.034;73.150;2023-04-24T04:22:42;15.23;;;5.20;;
72761;SDS011;60886;55.034;73.150;2023-04-24T04:25:48;10.20;;;4.78;;
72761;SDS011;60886;55.034;73.150;2023-04-24T04:28:52;12.75;;;4.50;;
72761;SDS011;60886;55.034;73.150;2023-04-24T04:31:58;13.18;;;4.90;;
72761;SDS011;60886;55.034;73.150;2023-04-24T04:35:01;9.30;;;4.00;;
72761;SDS011;60886;55.034;73.150;2023-04-24T04:38:05;12.43;;;4.50;;
72761;SDS011;60886;55.034;73.150;2023-04-24T04:41:19;12.70;;;4.25;;
72761;SDS011;60886;55.034;73.150;2023-04-24T04:44:32;11.48;;;4.13;;
72761;SDS011;60886;55.034;73.150;2023-04-24T04:47:35;10.80;;;4.20;;
72761;SDS011;60886;55.034;73.150;2023-04-24T04:50:36;12.88;;;4.30;;
72761;SDS011;60886;55.034;73.150;2023-04-24T04:53:41;8.70;;;3.83;;
72761;SDS011;60886;55.034;73.150;2023-04-24T04:56:47;11.45;;;4.22;;
72761;SDS011;60886;55.034;73.150;2023-04-24T05:00:01;12.63;;;4.18;;
72761;SDS011;60886;55.034;73.150;2023-04-24T05:03:26;11.20;;;4.10;;
72761;SDS011;60886;55.034;73.150;2023-04-24T05:06:47;9.60;;;3.98;;
72761;SDS011;60886;55.034;73.150;2023-04-24T05:09:48;7.95;;;4.03;;
72761;SDS011;60886;55.034;73.150;2023-04-24T05:12:50;10.93;;;4.20;;
72761;SDS011;60886;55.034;73.150;2023-04-24T05:15:51;8.98;;;3.80;;
72761;SDS011;60886;55.034;73.150;2023-04-24T05:18:53;8.10;;;3.77;;
72761;SDS011;60886;55.034;73.150;2023-04-24T05:22:01;7.50;;;3.67;;
72761;SDS011;60886;55.034;73.150;2023-04-24T05:25:04;10.15;;;3.83;;
72761;SDS011;60886;55.034;73.150;2023-04-24T05:28:32;9.77;;;3.60;;
72761;SDS011;60886;55.034;73.150;2023-04-24T05:31:47;9.80;;;3.70;;
72761;SDS011;60886;55.034;73.150;2023-04-24T05:34:49;9.20;;;3.33;;
72761;SDS011;60886;55.034;73.150;2023-04-24T05:37:51;7.47;;;3.25;;
72761;SDS011;60886;55.034;73.150;2023-04-24T05:40:52;9.45;;;3.70;;
72761;SDS011;60886;55.034;73.150;2023-04-24T05:43:54;8.17;;;2.90;;
72761;SDS011;60886;55.034;73.150;2023-04-24T05:46:55;7.78;;;2.90;;
72761;SDS011;60886;55.034;73.150;2023-04-24T05:49:57;10.23;;;2.90;;
72761;SDS011;60886;55.034;73.150;2023-04-24T05:53:04;8.03;;;3.10;;
72761;SDS011;60886;55.034;73.150;2023-04-24T05:56:09;7.40;;;2.63;;
72761;SDS011;60886;55.034;73.150;2023-04-24T05:59:16;7.70;;;3.00;;
72761;SDS011;60886;55.034;73.150;2023-04-24T06:02:17;6.75;;;2.83;;
72761;SDS011;60886;55.034;73.150;2023-04-24T06:05:19;8.20;;;2.80;;
72761;SDS011;60886;55.034;73.150;2023-04-24T06:08:21;7.07;;;2.70;;
72761;SDS011;60886;55.034;73.150;2023-04-24T06:11:23;7.50;;;2.60;;
72761;SDS011;60886;55.034;73.150;2023-04-24T06:14:25;8.85;;;2.50;;
72761;SDS011;60886;55.034;73.150;2023-04-24T06:17:47;6.10;;;2.20;;
72761;SDS011;60886;55.034;73.150;2023-04-24T06:20:50;6.43;;;2.30;;
72761;SDS011;60886;55.034;73.150;2023-04-24T06:23:52;6.13;;;2.53;;
72761;SDS011;60886;55.034;73.150;2023-04-24T06:26:54;6.57;;;2.42;;
72761;SDS011;60886;55.034;73.150;2023-04-24T06:30:08;8.40;;;2.40;;
72761;SDS011;60886;55.034;73.150;2023-04-24T06:33:09;6.38;;;2.22;;
72761;SDS011;60886;55.034;73.150;2023-04-24T06:36:12;7.15;;;2.50;;
72761;SDS011;60886;55.034;73.150;2023-04-24T06:39:13;6.80;;;2.30;;
72761;SDS011;60886;55.034;73.150;2023-04-24T06:42:15;9.00;;;2.37;;
72761;SDS011;60886;55.034;73.150;2023-04-24T06:45:28;6.45;;;2.33;;
72761;SDS011;60886;55.034;73.150;2023-04-24T06:48:30;7.30;;;2.50;;
72761;SDS011;60886;55.034;73.150;2023-04-24T06:51:32;11.00;;;2.30;;
72761;SDS011;60886;55.034;73.150;2023-04-24T06:54:43;6.43;;;2.20;;
72761;SDS011;60886;55.034;73.150;2023-04-24T06:57:45;7.15;;;2.35;;
72761;SDS011;60886;55.034;73.150;2023-04-24T07:00:47;7.50;;;2.40;;
72761;SDS011;60886;55.034;73.150;2023-04-24T07:03:48;6.50;;;2.20;;
72761;SDS011;60886;55.034;73.150;2023-04-24T07:06:55;7.73;;;2.50;;
72761;SDS011;60886;55.034;73.150;2023-04-24T07:10:01;6.77;;;2.67;;
72761;SDS011;60886;55.034;73.150;2023-04-24T07:13:14;6.32;;;2.35;;
72761;SDS011;60886;55.034;73.150;2023-04-24T07:16:15;5.90;;;2.28;;
72761;SDS011;60886;55.034;73.150;2023-04-24T07:19:17;7.90;;;2.40;;
72761;SDS011;60886;55.034;73.150;2023-04-24T07:22:18;6.20;;;2.33;;
72761;SDS011;60886;55.034;73.150;2023-04-24T07:25:20;6.60;;;2.40;;
72761;SDS011;60886;55.034;73.150;2023-04-24T07:28:22;7.25;;;2.30;;
72761;SDS011;60886;55.034;73.150;2023-04-24T07:31:23;10.23;;;2.50;;
72761;SDS011;60886;55.034;73.150;2023-04-24T07:34:24;9.05;;;2.80;;
72761;SDS011;60886;55.034;73.150;2023-04-24T07:37:29;6.73;;;2.33;;
72761;SDS011;60886;55.034;73.150;2023-04-24T07:40:30;6.78;;;2.85;;
72761;SDS011;60886;55.034;73.150;2023-04-24T07:43:32;7.43;;;2.50;;
72761;SDS011;60886;55.034;73.150;2023-04-24T07:46:33;8.65;;;2.70;;
72761;SDS011;60886;55.034;73.150;2023-04-24T07:49:35;7.60;;;2.30;;
72761;SDS011;60886;55.034;73.150;2023-04-24T07:52:36;13.40;;;3.38;;
72761;SDS011;60886;55.034;73.150;2023-04-24T07:55:38;8.38;;;2.40;;
72761;SDS011;60886;55.034;73.150;2023-04-24T07:58:39;6.67;;;2.20;;
72761;SDS011;60886;55.034;73.150;2023-04-24T08:01:46;6.92;;;2.08;;
72761;SDS011;60886;55.034;73.150;2023-04-24T08:04:48;6.38;;;2.10;;
72761;SDS011;60886;55.034;73.150;2023-04-24T08:07:49;4.85;;;1.65;;
72761;SDS011;60886;55.034;73.150;2023-04-24T08:10:51;5.70;;;1.98;;
72761;SDS011;60886;55.034;73.150;2023-04-24T08:13:52;6.35;;;2.00;;
72761;SDS011;60886;55.034;73.150;2023-04-24T08:17:05;5.83;;;2.20;;
72761;SDS011;60886;55.034;73.150;2023-04-24T08:20:17;6.57;;;2.20;;
72761;SDS011;60886;55.034;73.150;2023-04-24T08:23:18;6.82;;;2.10;;
72761;SDS011;60886;55.034;73.150;2023-04-24T08:26:20;6.10;;;2.20;;
72761;SDS011;60886;55.034;73.150;2023-04-24T08:29:21;6.10;;;2.10;;
72761;SDS011;60886;55.034;73.150;2023-04-24T08:32:23;7.07;;;2.30;;
72761;SDS011;60886;55.034;73.150;2023-04-24T08:35:24;7.00;;;2.58;;
72761;SDS011;60886;55.034;73.150;2023-04-24T08:38:26;7.27;;;2.43;;
72761;SDS011;60886;55.034;73.150;2023-04-24T08:41:27;7.35;;;2.10;;
72761;SDS011;60886;55.034;73.150;2023-04-24T08:44:28;6.53;;;1.90;;
72761;SDS011;60886;55.034;73.150;2023-04-24T08:47:30;9.33;;;1.83;;
72761;SDS011;60886;55.034;73.150;2023-04-24T08:50:38;5.20;;;1.80;;
72761;SDS011;60886;55.034;73.150;2023-04-24T08:53:42;5.77;;;2.03;;
72761;SDS011;60886;55.034;73.150;2023-04-24T08:56:47;9.02;;;2.10;;
72761;SDS011;60886;55.034;73.150;2023-04-24T08:59:49;5.82;;;1.70;;
72761;SDS011;60886;55.034;73.150;2023-04-24T09:02:52;6.60;;;1.70;;
72761;SDS011;60886;55.034;73.150;2023-04-24T09:05:55;6.40;;;1.50;;
72761;SDS011;60886;55.034;73.150;2023-04-24T09:08:56;5.18;;;1.65;;
72761;SDS011;60886;55.034;73.150;2023-04-24T09:12:01;4.97;;;1.60;;
72761;SDS011;60886;55.034;73.150;2023-04-24T09:15:04;9.45;;;1.80;;
72761;SDS011;60886;55.034;73.150;2023-04-24T09:18:08;6.60;;;1.70;;
72761;SDS011;60886;55.034;73.150;2023-04-24T09:21:10;5.20;;;1.60;;
72761;SDS011;60886;55.034;73.150;2023-04-24T09:24:16;6.07;;;1.75;;
72761;SDS011;60886;55.034;73.150;2023-04-24T09:27:23;6.57;;;1.90;;
72761;SDS011;60886;55.034;73.150;2023-04-24T09:30:30;5.60;;;1.63;;
72761;SDS011;60886;55.034;73.150;2023-04-24T09:33:33;13.07;;;2.10;;
72761;SDS011;60886;55.034;73.150;2023-04-24T09:36:36;6.47;;;1.77;;
72761;SDS011;60886;55.034;73.150;2023-04-24T09:39:44;6.30;;;1.60;;
72761;SDS011;60886;55.034;73.150;2023-04-24T09:42:52;7.83;;;1.90;;
72761;SDS011;60886;55.034;73.150;2023-04-24T09:45:59;6.97;;;2.28;;
72761;SDS011;60886;55.034;73.150;2023-04-24T09:49:08;5.63;;;1.90;;
72761;SDS011;60886;55.034;73.150;2023-04-24T09:52:23;6.27;;;1.60;;
72761;SDS011;60886;55.034;73.150;2023-04-24T09:55:25;5.30;;;1.35;;
72761;SDS011;60886;55.034;73.150;2023-04-24T09:58:28;6.27;;;1.20;;
72761;SDS011;60886;55.034;73.150;2023-04-24T10:01:30;3.70;;;1.10;;
72761;SDS011;60886;55.034;73.150;2023-04-24T10:04:33;5.23;;;1.20;;
72761;SDS011;60886;55.034;73.150;2023-04-24T10:07:35;5.37;;;1.40;;
72761;SDS011;60886;55.034;73.150;2023-04-24T10:10:41;5.25;;;1.20;;
72761;SDS011;60886;55.034;73.150;2023-04-24T10:13:49;4.47;;;1.23;;
72761;SDS011;60886;55.034;73.150;2023-04-24T10:16:53;8.01;;;1.24;;
72761;SDS011;60886;55.034;73.150;2023-04-24T10:20:01;5.10;;;1.20;;
72761;SDS011;60886;55.034;73.150;2023-04-24T10:23:07;5.00;;;1.23;;
72761;SDS011;60886;55.034;73.150;2023-04-24T10:26:09;5.80;;;1.10;;
72761;SDS011;60886;55.034;73.150;2023-04-24T10:29:19;4.77;;;1.30;;
72761;SDS011;60886;55.034;73.150;2023-04-24T10:32:22;5.72;;;1.15;;
72761;SDS011;60886;55.034;73.150;2023-04-24T10:35:23;6.80;;;1.60;;
72761;SDS011;60886;55.034;73.150;2023-04-24T10:38:28;7.63;;;1.38;;
72761;SDS011;60886;55.034;73.150;2023-04-24T10:41:31;6.63;;;1.07;;
72761;SDS011;60886;55.034;73.150;2023-04-24T10:44:36;18.70;;;2.17;;
72761;SDS011;60886;55.034;73.150;2023-04-24T10:47:40;5.43;;;1.40;;
72761;SDS011;60886;55.034;73.150;2023-04-24T10:50:46;8.05;;;1.52;;
72761;SDS011;60886;55.034;73.150;2023-04-24T10:53:51;23.83;;;2.28;;
72761;SDS011;60886;55.034;73.150;2023-04-24T11:00:19;5.90;;;1.35;;
72761;SDS011;60886;55.034;73.150;2023-04-24T11:03:23;7.57;;;1.70;;
72761;SDS011;60886;55.034;73.150;2023-04-24T11:06:30;10.93;;;1.50;;
72761;SDS011;60886;55.034;73.150;2023-04-24T11:09:32;6.68;;;1.65;;
72761;SDS011;60886;55.034;73.150;2023-04-24T11:12:35;9.25;;;2.28;;
72761;SDS011;60886;55.034;73.150;2023-04-24T11:15:37;10.05;;;2.20;;
72761;SDS011;60886;55.034;73.150;2023-04-24T11:18:42;11.80;;;2.57;;
72761;SDS011;60886;55.034;73.150;2023-04-24T11:21:57;11.47;;;1.60;;
72761;SDS011;60886;55.034;73.150;2023-04-24T11:25:04;11.43;;;1.80;;
72761;SDS011;60886;55.034;73.150;2023-04-24T11:28:07;18.60;;;2.22;;
72761;SDS011;60886;55.034;73.150;2023-04-24T11:31:37;21.10;;;2.42;;
72761;SDS011;60886;55.034;73.150;2023-04-24T11:34:40;24.95;;;2.83;;
72761;SDS011;60886;55.034;73.150;2023-04-24T11:37:47;9.10;;;1.70;;
72761;SDS011;60886;55.034;73.150;2023-04-24T11:40:51;7.43;;;1.63;;
72761;SDS011;60886;55.034;73.150;2023-04-24T11:43:53;9.13;;;1.70;;
72761;SDS011;60886;55.034;73.150;2023-04-24T11:46:55;5.90;;;1.77;;
72761;SDS011;60886;55.034;73.150;2023-04-24T11:50:08;10.10;;;2.27;;
72761;SDS011;60886;55.034;73.150;2023-04-24T11:53:19;10.10;;;2.50;;
72761;SDS011;60886;55.034;73.150;2023-04-24T11:56:23;8.37;;;2.27;;
72761;SDS011;60886;55.034;73.150;2023-04-24T11:59:25;7.97;;;2.58;;
72761;SDS011;60886;55.034;73.150;2023-04-24T12:02:26;7.40;;;2.77;;
72761;SDS011;60886;55.034;73.150;2023-04-24T12:05:28;9.88;;;2.85;;
72761;SDS011;60886;55.034;73.150;2023-04-24T12:08:32;9.20;;;3.47;;
72761;SDS011;60886;55.034;73.150;2023-04-24T12:11:34;15.00;;;6.07;;
72761;SDS011;60886;55.034;73.150;2023-04-24T12:14:49;13.05;;;5.43;;
72761;SDS011;60886;55.034;73.150;2023-04-24T12:17:56;10.63;;;5.50;;
72761;SDS011;60886;55.034;73.150;2023-04-24T12:24:22;15.90;;;4.67;;
72761;SDS011;60886;55.034;73.150;2023-04-24T12:27:24;10.10;;;3.90;;
72761;SDS011;60886;55.034;73.150;2023-04-24T12:30:42;13.48;;;1.90;;
72761;SDS011;60886;55.034;73.150;2023-04-24T12:33:49;9.65;;;1.23;;
72761;SDS011;60886;55.034;73.150;2023-04-24T12:36:51;10.65;;;1.27;;
72761;SDS011;60886;55.034;73.150;2023-04-24T12:43:17;4.47;;;1.00;;
72761;SDS011;60886;55.034;73.150;2023-04-24T12:46:20;8.52;;;1.20;;
72761;SDS011;60886;55.034;73.150;2023-04-24T12:49:21;5.00;;;1.00;;
72761;SDS011;60886;55.034;73.150;2023-04-24T12:52:33;8.77;;;2.33;;
72761;SDS011;60886;55.034;73.150;2023-04-24T12:55:45;5.47;;;1.30;;
72761;SDS011;60886;55.034;73.150;2023-04-24T12:58:47;5.53;;;1.23;;
72761;SDS011;60886;55.034;73.150;2023-04-24T13:01:49;5.10;;;1.20;;
72761;SDS011;60886;55.034;73.150;2023-04-24T13:04:52;5.32;;;1.08;;
72761;SDS011;60886;55.034;73.150;2023-04-24T13:07:53;4.53;;;0.93;;
72761;SDS011;60886;55.034;73.150;2023-04-24T13:10:55;5.50;;;1.10;;
72761;SDS011;60886;55.034;73.150;2023-04-24T13:13:56;5.75;;;1.10;;
72761;SDS011;60886;55.034;73.150;2023-04-24T13:16:58;5.43;;;1.00;;
72761;SDS011;60886;55.034;73.150;2023-04-24T13:19:59;8.27;;;2.57;;
72761;SDS011;60886;55.034;73.150;2023-04-24T13:23:01;6.43;;;1.20;;
72761;SDS011;60886;55.034;73.150;2023-04-24T13:26:02;6.60;;;1.30;;
72761;SDS011;60886;55.034;73.150;2023-04-24T13:29:04;4.22;;;1.00;;
72761;SDS011;60886;55.034;73.150;2023-04-24T13:32:06;6.17;;;0.80;;
72761;SDS011;60886;55.034;73.150;2023-04-24T13:35:17;5.70;;;1.10;;
72761;SDS011;60886;55.034;73.150;2023-04-24T13:38:19;5.90;;;0.95;;
72761;SDS011;60886;55.034;73.150;2023-04-24T13:41:22;5.07;;;1.07;;
72761;SDS011;60886;55.034;73.150;2023-04-24T13:44:23;4.05;;;0.80;;
72761;SDS011;60886;55.034;73.150;2023-04-24T13:47:30;5.85;;;0.90;;
72761;SDS011;60886;55.034;73.150;2023-04-24T13:50:42;5.27;;;1.27;;
72761;SDS011;60886;55.034;73.150;2023-04-24T13:53:44;8.35;;;1.30;;
72761;SDS011;60886;55.034;73.150;2023-04-24T13:56:46;6.13;;;1.00;;
72761;SDS011;60886;55.034;73.150;2023-04-24T13:59:48;3.53;;;0.87;;
72761;SDS011;60886;55.034;73.150;2023-04-24T14:02:49;7.40;;;1.10;;
72761;SDS011;60886;55.034;73.150;2023-04-24T14:05:56;5.38;;;1.00;;
72761;SDS011;60886;55.034;73.150;2023-04-24T14:08:58;3.80;;;0.90;;
72761;SDS011;60886;55.034;73.150;2023-04-24T14:11:59;5.85;;;0.90;;
72761;SDS011;60886;55.034;73.150;2023-04-24T14:15:03;4.22;;;0.73;;
72761;SDS011;60886;55.034;73.150;2023-04-24T14:18:06;20.17;;;6.83;;
72761;SDS011;60886;55.034;73.150;2023-04-24T14:21:12;4.63;;;1.10;;
72761;SDS011;60886;55.034;73.150;2023-04-24T14:24:13;4.55;;;0.90;;
72761;SDS011;60886;55.034;73.150;2023-04-24T14:27:20;3.50;;;0.80;;
72761;SDS011;60886;55.034;73.150;2023-04-24T14:30:29;4.53;;;0.90;;
72761;SDS011;60886;55.034;73.150;2023-04-24T14:33:30;3.45;;;0.80;;
72761;SDS011;60886;55.034;73.150;2023-04-24T14:36:46;4.27;;;0.86;;
72761;SDS011;60886;55.034;73.150;2023-04-24T14:39:48;7.17;;;2.43;;
72761;SDS011;60886;55.034;73.150;2023-04-24T14:42:59;4.18;;;1.00;;
72761;SDS011;60886;55.034;73.150;2023-04-24T14:46:04;5.32;;;0.77;;
72761;SDS011;60886;55.034;73.150;2023-04-24T14:49:06;4.47;;;0.70;;
72761;SDS011;60886;55.034;73.150;2023-04-24T14:52:10;3.40;;;0.80;;
72761;SDS011;60886;55.034;73.150;2023-04-24T14:55:11;4.23;;;1.07;;
72761;SDS011;60886;55.034;73.150;2023-04-24T14:58:23;3.75;;;0.93;;
72761;SDS011;60886;55.034;73.150;2023-04-24T15:01:25;3.53;;;0.80;;
72761;SDS011;60886;55.034;73.150;2023-04-24T15:04:27;3.47;;;0.67;;
72761;SDS011;60886;55.034;73.150;2023-04-24T15:07:39;3.58;;;0.80;;
72761;SDS011;60886;55.034;73.150;2023-04-24T15:10:42;4.38;;;0.90;;
72761;SDS011;60886;55.034;73.150;2023-04-24T15:13:44;5.17;;;0.80;;
72761;SDS011;60886;55.034;73.150;2023-04-24T15:16:58;4.63;;;1.00;;
72761;SDS011;60886;55.034;73.150;2023-04-24T15:20:00;3.53;;;0.80;;
72761;SDS011;60886;55.034;73.150;2023-04-24T15:23:10;8.07;;;1.43;;
72761;SDS011;60886;55.034;73.150;2023-04-24T15:26:22;5.80;;;1.52;;
72761;SDS011;60886;55.034;73.150;2023-04-24T15:29:24;3.55;;;0.90;;
72761;SDS011;60886;55.034;73.150;2023-04-24T15:32:26;4.30;;;0.93;;
72761;SDS011;60886;55.034;73.150;2023-04-24T15:35:28;4.88;;;0.90;;
72761;SDS011;60886;55.034;73.150;2023-04-24T15:38:30;3.73;;;0.90;;
72761;SDS011;60886;55.034;73.150;2023-04-24T15:41:46;4.57;;;1.02;;
72761;SDS011;60886;55.034;73.150;2023-04-24T15:44:58;5.07;;;1.20;;
72761;SDS011;60886;55.034;73.150;2023-04-24T15:48:03;5.37;;;1.20;;
72761;SDS011;60886;55.034;73.150;2023-04-24T15:51:04;6.15;;;1.58;;
72761;SDS011;60886;55.034;73.150;2023-04-24T15:54:10;6.23;;;1.50;;
72761;SDS011;60886;55.034;73.150;2023-04-24T15:57:12;9.63;;;1.50;;
72761;SDS011;60886;55.034;73.150;2023-04-24T16:00:14;2.83;;;0.70;;
72761;SDS011;60886;55.034;73.150;2023-04-24T16:03:21;3.00;;;0.60;;
72761;SDS011;60886;55.034;73.150;2023-04-24T16:06:27;3.67;;;0.80;;
72761;SDS011;60886;55.034;73.150;2023-04-24T16:09:33;3.50;;;0.90;;
72761;SDS011;60886;55.034;73.150;2023-04-24T16:12:40;3.78;;;0.88;;
72761;SDS011;60886;55.034;73.150;2023-04-24T16:15:44;4.23;;;0.97;;
72761;SDS011;60886;55.034;73.150;2023-04-24T16:18:46;4.53;;;0.88;;
72761;SDS011;60886;55.034;73.150;2023-04-24T16:21:47;3.44;;;0.70;;
72761;SDS011;60886;55.034;73.150;2023-04-24T16:24:49;4.70;;;0.80;;
72761;SDS011;60886;55.034;73.150;2023-04-24T16:27:51;3.20;;;0.70;;
72761;SDS011;60886;55.034;73.150;2023-04-24T16:30:52;3.67;;;0.80;;
72761;SDS011;60886;55.034;73.150;2023-04-24T16:33:54;3.28;;;0.80;;
72761;SDS011;60886;55.034;73.150;2023-04-24T16:37:00;3.40;;;0.80;;
72761;SDS011;60886;55.034;73.150;2023-04-24T16:40:02;4.28;;;0.82;;
72761;SDS011;60886;55.034;73.150;2023-04-24T16:43:11;4.67;;;0.80;;
72761;SDS011;60886;55.034;73.150;2023-04-24T16:46:12;3.95;;;0.80;;
72761;SDS011;60886;55.034;73.150;2023-04-24T16:49:14;4.80;;;0.80;;
72761;SDS011;60886;55.034;73.150;2023-04-24T16:52:16;4.90;;;0.80;;
72761;SDS011;60886;55.034;73.150;2023-04-24T16:55:17;4.95;;;0.90;;
72761;SDS011;60886;55.034;73.150;2023-04-24T16:58:19;3.77;;;0.70;;
72761;SDS011;60886;55.034;73.150;2023-04-24T17:01:20;4.32;;;0.90;;
72761;SDS011;60886;55.034;73.150;2023-04-24T17:04:22;3.03;;;0.60;;
72761;SDS011;60886;55.034;73.150;2023-04-24T17:07:23;3.47;;;0.80;;
72761;SDS011;60886;55.034;73.150;2023-04-24T17:10:35;3.83;;;0.70;;
72761;SDS011;60886;55.034;73.150;2023-04-24T17:13:37;4.55;;;0.88;;
72761;SDS011;60886;55.034;73.150;2023-04-24T17:16:46;4.09;;;0.86;;
72761;SDS011;60886;55.034;73.150;2023-04-24T17:19:48;3.70;;;0.80;;
72761;SDS011;60886;55.034;73.150;2023-04-24T17:22:51;4.45;;;0.80;;
72761;SDS011;60886;55.034;73.150;2023-04-24T17:25:52;5.10;;;0.90;;
72761;SDS011;60886;55.034;73.150;2023-04-24T17:28:54;3.77;;;0.80;;
72761;SDS011;60886;55.034;73.150;2023-04-24T17:32:00;6.53;;;1.40;;
72761;SDS011;60886;55.034;73.150;2023-04-24T17:35:02;6.47;;;1.50;;
72761;SDS011;60886;55.034;73.150;2023-04-24T17:38:04;4.70;;;1.00;;
72761;SDS011;60886;55.034;73.150;2023-04-24T17:41:16;5.87;;;1.20;;
72761;SDS011;60886;55.034;73.150;2023-04-24T17:44:17;5.93;;;1.70;;
72761;SDS011;60886;55.034;73.150;2023-04-24T17:47:19;7.55;;;2.50;;
72761;SDS011;60886;55.034;73.150;2023-04-24T17:50:27;8.65;;;3.10;;
72761;SDS011;60886;55.034;73.150;2023-04-24T17:53:33;7.97;;;2.80;;
72761;SDS011;60886;55.034;73.150;2023-04-24T17:56:46;9.27;;;2.83;;
72761;SDS011;60886;55.034;73.150;2023-04-24T17:59:58;7.97;;;2.20;;
72761;SDS011;60886;55.034;73.150;2023-04-24T18:03:00;8.40;;;2.33;;
72761;SDS011;60886;55.034;73.150;2023-04-24T18:06:05;11.98;;;3.72;;
72761;SDS011;60886;55.034;73.150;2023-04-24T18:09:07;10.00;;;3.67;;
72761;SDS011;60886;55.034;73.150;2023-04-24T18:12:13;10.48;;;3.55;;
72761;SDS011;60886;55.034;73.150;2023-04-24T18:15:24;10.35;;;4.68;;
72761;SDS011;60886;55.034;73.150;2023-04-24T18:18:26;10.67;;;5.37;;
72761;SDS011;60886;55.034;73.150;2023-04-24T18:21:46;7.51;;;3.30;;